Time;durP1;ratioP1;P1;durP2;ratioP2;P2;SDS_P1;SDS_P2;PMS_P1;PMS_P2;Temp;Humidity;BMP_temperature;BMP_pressure;BME280_temperature;BME280_humidity;BME280_pressure;Samples;Min_cycle;Max_cycle;Signal;HPM_P1;HPM_P2
2023/01/04 00:00:59;;;;;;;5.55;2.53;;;;;;;7.39;100.00;101843.25;4898554;29;20043;-91
2023/01/04 00:03:24;;;;;;;8.07;2.83;;;;;;;7.39;100.00;101854.06;4914730;29;20074;-91
2023/01/04 00:05:49;;;;;;;6.65;2.83;;;;;;;7.38;100.00;101835.19;4913384;29;20067;-91
2023/01/04 00:08:15;;;;;;;9.60;2.72;;;;;;;7.40;100.00;101834.16;4928333;29;20051;-90
2023/01/04 00:10:40;;;;;;;7.50;2.65;;;;;;;7.39;100.00;101831.53;4917835;29;20035;-90
2023/01/04 00:13:05;;;;;;;10.77;3.05;;;;;;;7.42;100.00;101831.41;4929464;29;20046;-90
2023/01/04 00:15:31;;;;;;;10.25;2.95;;;;;;;7.36;100.00;101819.00;4916642;29;20068;-92
2023/01/04 00:17:56;;;;;;;10.95;3.15;;;;;;;7.36;100.00;101804.59;4902661;29;20046;-90
2023/01/04 00:20:22;;;;;;;7.05;2.88;;;;;;;7.41;100.00;101817.00;4935228;29;20071;-90
2023/01/04 00:22:47;;;;;;;5.68;2.75;;;;;;;7.40;100.00;101809.81;4903128;29;20020;-91
2023/01/04 00:25:12;;;;;;;10.77;3.28;;;;;;;7.41;100.00;101807.97;4902069;29;20522;-90
2023/01/04 00:27:38;;;;;;;10.60;3.40;;;;;;;7.35;100.00;101792.88;4919622;29;20478;-91
2023/01/04 00:30:04;;;;;;;7.32;3.10;;;;;;;7.44;100.00;101796.16;4904459;29;20038;-91
2023/01/04 00:32:30;;;;;;;8.70;3.25;;;;;;;7.43;100.00;101776.31;4921047;29;20515;-90
2023/01/04 00:34:55;;;;;;;8.32;3.08;;;;;;;7.43;100.00;101775.44;4935853;29;20125;-90
2023/01/04 00:37:21;;;;;;;9.93;3.58;;;;;;;7.50;100.00;101785.91;4936637;29;20035;-90
2023/01/04 00:39:46;;;;;;;7.30;2.97;;;;;;;7.51;100.00;101765.16;4920780;29;20122;-90
2023/01/04 00:42:11;;;;;;;6.97;3.35;;;;;;;7.46;100.00;101764.44;4934668;29;20046;-92
2023/01/04 00:44:37;;;;;;;8.50;3.40;;;;;;;7.47;100.00;101766.25;4902777;29;20036;-89
2023/01/04 00:47:03;;;;;;;9.80;3.33;;;;;;;7.51;100.00;101760.63;4917900;29;20146;-92
2023/01/04 00:49:30;;;;;;;10.77;3.45;;;;;;;7.52;100.00;101775.03;4911899;29;20054;-92
2023/01/04 00:51:55;;;;;;;7.63;2.92;;;;;;;7.53;100.00;101772.25;4936268;29;20039;-90
2023/01/04 00:54:21;;;;;;;10.15;4.20;;;;;;;7.50;100.00;101744.41;4920967;29;20090;-92
2023/01/04 00:56:47;;;;;;;6.85;2.63;;;;;;;7.57;100.00;101756.75;4931045;29;20050;-91
2023/01/04 00:59:15;;;;;;;5.82;2.97;;;;;;;7.56;100.00;101742.34;4912643;29;20042;-91
2023/01/04 01:01:43;;;;;;;6.25;2.80;;;;;;;7.56;100.00;101726.09;4917168;29;20435;-90
2023/01/04 01:04:11;;;;;;;10.40;2.80;;;;;;;7.61;100.00;101734.88;4901832;29;20119;-91
2023/01/04 01:06:37;;;;;;;5.65;2.50;;;;;;;7.62;100.00;101747.47;4919802;29;20551;-89
2023/01/04 01:09:03;;;;;;;5.25;2.85;;;;;;;7.65;100.00;101732.91;4920730;29;20130;-91
2023/01/04 01:11:29;;;;;;;6.15;2.40;;;;;;;7.63;100.00;101722.13;4920467;29;20070;-90
2023/01/04 01:13:55;;;;;;;5.53;2.70;;;;;;;7.66;100.00;101718.41;4935050;29;20450;-92
2023/01/04 01:16:22;;;;;;;5.85;2.42;;;;;;;7.73;100.00;101725.28;4920823;29;20058;-91
2023/01/04 01:18:48;;;;;;;5.28;2.40;;;;;;;7.70;100.00;101711.91;4935979;29;20072;-92
2023/01/04 01:21:20;;;;;;;13.07;2.00;;;;;;;7.73;100.00;101724.41;4920667;29;20043;-92
2023/01/04 01:23:47;;;;;;;5.28;2.17;;;;;;;7.76;100.00;101725.16;4920521;29;20039;-92
2023/01/04 01:26:15;;;;;;;3.13;2.08;;;;;;;7.78;100.00;101715.13;4918615;29;20066;-90
2023/01/04 01:28:41;;;;;;;3.70;1.92;;;;;;;7.75;100.00;101709.00;4933213;29;20046;-92
2023/01/04 01:31:15;;;;;;;3.88;1.85;;;;;;;7.84;100.00;101711.25;4920607;29;20039;-90
2023/01/04 01:33:43;;;;;;;3.30;2.08;;;;;;;7.86;100.00;101726.47;4900504;29;20066;-91
2023/01/04 01:36:10;;;;;;;4.45;2.00;;;;;;;7.87;100.00;101709.25;4916776;29;20035;-91
2023/01/04 01:38:37;;;;;;;3.67;2.58;;;;;;;7.91;100.00;101696.47;4901067;29;20039;-91
2023/01/04 01:41:04;;;;;;;3.75;1.77;;;;;;;7.91;100.00;101705.47;4910903;29;20039;-90
2023/01/04 01:43:46;;;;;;;6.70;2.10;;;;;;;7.92;100.00;101698.22;4905154;29;20023;-90
2023/01/04 01:46:13;;;;;;;4.28;2.00;;;;;;;7.90;100.00;101692.00;4936769;29;20114;-92
2023/01/04 01:48:39;;;;;;;3.30;2.00;;;;;;;7.86;100.00;101690.38;4935271;29;20058;-92
2023/01/04 01:51:05;;;;;;;4.25;2.03;;;;;;;7.86;100.00;101690.38;4908271;29;20546;-91
2023/01/04 01:53:37;;;;;;;4.25;2.17;;;;;;;7.95;100.00;101686.38;4916311;29;20039;-90
2023/01/04 01:56:07;;;;;;;5.93;2.15;;;;;;;7.91;100.00;101688.34;4915887;29;20046;-91
2023/01/04 01:58:46;;;;;;;3.42;2.17;;;;;;;7.96;100.00;101702.53;4905456;29;20047;-89
2023/01/04 02:01:12;;;;;;;7.25;2.17;;;;;;;7.95;100.00;101684.53;4951242;29;20031;-91
2023/01/04 02:03:42;;;;;;;6.78;2.13;;;;;;;7.98;100.00;101700.66;4934953;29;20081;-91
2023/01/04 02:06:11;;;;;;;6.65;1.80;;;;;;;8.00;100.00;101706.84;4932748;29;20106;-90
2023/01/04 02:08:40;;;;;;;3.00;1.90;;;;;;;7.99;100.00;101683.44;4919057;29;20046;-90
2023/01/04 02:11:05;;;;;;;6.68;2.42;;;;;;;7.97;100.00;101682.59;4917366;29;20055;-93
2023/01/04 02:16:32;;;;;;;5.55;2.17;;;;;;;8.07;100.00;101700.22;4935386;29;20062;-90
2023/01/04 02:19:13;;;;;;;2.95;1.70;;;;;;;8.05;100.00;101696.69;4918030;29;20148;-91
2023/01/04 02:22:01;;;;;;;2.13;1.60;;;;;;;8.08;100.00;101685.69;4918721;29;20102;-92
2023/01/04 02:24:46;;;;;;;3.00;1.83;;;;;;;8.09;100.00;101689.28;4919241;29;20086;-91
2023/01/04 02:27:39;;;;;;;2.10;1.60;;;;;;;8.15;100.00;101695.28;4916390;29;20031;-91
2023/01/04 02:30:11;;;;;;;3.80;2.00;;;;;;;8.12;100.00;101676.47;4932196;29;20031;-91
2023/01/04 02:32:50;;;;;;;2.53;1.27;;;;;;;8.20;100.00;101681.50;4934317;29;20491;-91
2023/01/04 02:35:27;;;;;;;3.50;1.80;;;;;;;8.16;100.00;101656.41;4918740;29;20786;-92
2023/01/04 02:37:53;;;;;;;1.85;1.75;;;;;;;8.24;100.00;101660.53;4918675;29;20043;-90
2023/01/04 02:40:32;;;;;;;5.75;1.95;;;;;;;8.19;100.00;101652.63;4920475;29;20116;-91
2023/01/04 02:46:06;;;;;;;2.80;1.63;;;;;;;8.29;100.00;101634.94;4916167;29;20070;-91
2023/01/04 02:51:35;;;;;;;2.72;1.92;;;;;;;8.28;100.00;101627.78;4935075;29;20121;-91
2023/01/04 02:54:06;;;;;;;2.42;1.60;;;;;;;8.35;100.00;101631.09;4934661;29;20380;-90
2023/01/04 02:56:38;;;;;;;2.35;2.03;;;;;;;8.40;100.00;101631.75;4917590;29;20049;-90
2023/01/04 02:59:12;;;;;;;1.88;1.63;;;;;;;8.42;100.00;101629.81;4932884;29;20043;-92
2023/01/04 03:08:41;;;;;;;2.67;1.75;;;;;;;8.45;100.00;101626.97;4876581;29;20047;-91
2023/01/04 03:14:06;;;;;;;3.72;1.60;;;;;;;8.48;100.00;101617.78;4902410;29;20039;-90
2023/01/04 03:16:35;;;;;;;3.80;1.50;;;;;;;8.48;100.00;101609.66;4935257;29;20050;-90
2023/01/04 03:19:08;;;;;;;1.80;1.70;;;;;;;8.48;100.00;101607.81;4933971;29;20372;-92
2023/01/04 03:21:43;;;;;;;3.03;1.50;;;;;;;8.50;100.00;101602.34;4949064;29;20038;-91
2023/01/04 03:35:21;;;;;;;2.35;2.08;;;;;;;8.55;100.00;101590.28;4931729;29;20110;-90
2023/01/04 03:36:00;;;;;;;2.45;2.25;;;;;;;8.66;100.00;101604.16;4933704;29;20050;-91
2023/01/04 03:50:54;;;;;;;3.42;2.40;;;;;;;8.82;100.00;101578.94;4935850;29;20449;-92
2023/01/04 03:53:20;;;;;;;4.57;2.58;;;;;;;8.79;100.00;101560.09;4937597;29;20035;-90
2023/01/04 03:55:47;;;;;;;2.53;1.90;;;;;;;8.79;100.00;101546.53;4921000;29;20066;-91
2023/01/04 03:58:13;;;;;;;3.63;2.20;;;;;;;8.82;100.00;101552.69;4935091;29;20046;-91
2023/01/04 04:00:38;;;;;;;5.30;2.65;;;;;;;8.81;100.00;101542.81;4921843;29;20047;-92
2023/01/04 04:03:11;;;;;;;2.85;2.20;;;;;;;8.81;100.00;101536.47;4920908;29;20047;-90
2023/01/04 04:08:23;;;;;;;2.92;2.22;;;;;;;8.92;100.00;101547.63;4939254;29;20070;-91
2023/01/04 04:10:49;;;;;;;6.03;2.33;;;;;;;8.97;100.00;101539.25;4902032;29;20075;-90
2023/01/04 04:13:14;;;;;;;2.92;2.30;;;;;;;8.97;100.00;101544.69;4933254;29;20034;-91
2023/01/04 04:15:40;;;;;;;2.90;2.50;;;;;;;8.94;100.00;101533.00;4921363;29;20031;-91
2023/01/04 04:18:05;;;;;;;3.30;2.50;;;;;;;8.98;100.00;101522.88;4921152;29;20430;-91
2023/01/04 04:20:31;;;;;;;2.53;2.22;;;;;;;9.02;100.00;101529.88;4936451;29;20031;-91
2023/01/04 04:22:56;;;;;;;6.57;2.22;;;;;;;9.03;100.00;101530.75;4920531;29;20506;-90
2023/01/04 04:25:21;;;;;;;2.50;2.15;;;;;;;9.01;100.00;101535.41;4937340;29;20095;-92
2023/01/04 04:27:47;;;;;;;6.53;2.25;;;;;;;9.04;100.00;101527.06;4926994;29;20031;-90
2023/01/04 04:30:13;;;;;;;3.63;2.63;;;;;;;9.03;100.00;101519.91;4902267;29;20040;-91
2023/01/04 04:32:38;;;;;;;3.17;2.60;;;;;;;9.05;100.00;101523.44;4922764;29;20519;-90
2023/01/04 04:35:04;;;;;;;6.07;2.17;;;;;;;9.04;100.00;101522.53;4917501;29;20180;-91
2023/01/04 04:37:30;;;;;;;4.57;2.47;;;;;;;9.05;100.00;101515.28;4916967;29;20054;-90
2023/01/04 04:39:57;;;;;;;4.85;2.85;;;;;;;9.09;100.00;101515.03;4917458;29;20094;-90
2023/01/04 04:42:22;;;;;;;2.80;2.50;;;;;;;9.08;100.00;101498.81;4932577;29;20141;-90
2023/01/04 04:44:48;;;;;;;2.58;2.35;;;;;;;9.11;100.00;101498.66;4901415;29;20179;-89
2023/01/04 04:47:13;;;;;;;4.50;2.85;;;;;;;9.13;100.00;101502.13;4917140;29;20411;-90
2023/01/04 04:49:38;;;;;;;6.57;2.92;;;;;;;9.14;100.00;101506.63;4933510;29;20100;-89
2023/01/04 04:52:04;;;;;;;4.03;3.08;;;;;;;9.15;100.00;101470.38;4935644;29;20454;-92
2023/01/04 04:54:29;;;;;;;3.28;2.63;;;;;;;9.24;100.00;101494.28;4920128;29;20039;-89
2023/01/04 04:56:54;;;;;;;3.50;2.65;;;;;;;9.29;100.00;101496.75;4934759;29;20035;-91
2023/01/04 04:59:20;;;;;;;4.55;2.33;;;;;;;9.26;100.00;101480.63;4919156;29;20407;-90
2023/01/04 05:01:45;;;;;;;4.57;2.75;;;;;;;9.32;100.00;101493.84;4935912;29;20138;-89
2023/01/04 05:04:15;;;;;;;4.30;2.47;;;;;;;9.31;100.00;101478.50;4902869;29;20026;-90
2023/01/04 05:06:46;;;;;;;4.28;2.63;;;;;;;9.31;100.00;101482.09;4916250;29;20050;-90
2023/01/04 05:09:12;;;;;;;3.65;2.22;;;;;;;9.33;100.00;101465.75;4919560;29;20463;-90
2023/01/04 05:14:22;;;;;;;7.65;2.55;;;;;;;9.40;100.00;101473.44;4934623;29;20094;-90
2023/01/04 05:16:48;;;;;;;5.50;2.85;;;;;;;9.42;100.00;101465.22;4935603;29;20020;-89
2023/01/04 05:19:13;;;;;;;3.78;2.72;;;;;;;9.51;100.00;101471.91;4918907;29;20047;-90
2023/01/04 05:21:39;;;;;;;3.15;2.70;;;;;;;9.50;100.00;101470.19;4919365;29;20041;-90
2023/01/04 05:24:06;;;;;;;6.25;3.17;;;;;;;9.47;100.00;101465.81;4919257;29;20166;-90
2023/01/04 05:26:31;;;;;;;6.97;2.53;;;;;;;9.54;100.00;101469.03;4934887;29;20068;-90
2023/01/04 05:28:57;;;;;;;5.30;2.40;;;;;;;9.48;100.00;101464.84;4933173;29;20126;-90
2023/01/04 05:31:23;;;;;;;5.55;2.45;;;;;;;9.55;100.00;101460.78;4934763;29;20514;-91
2023/01/04 05:33:48;;;;;;;2.90;2.30;;;;;;;9.57;100.00;101452.56;4915720;29;20040;-90
2023/01/04 05:36:14;;;;;;;9.95;2.45;;;;;;;9.59;100.00;101456.06;4901027;29;20058;-89
2023/01/04 05:38:39;;;;;;;4.95;2.35;;;;;;;9.59;100.00;101469.66;4900233;29;20183;-90
2023/01/04 05:42:24;;;;;;;4.28;2.30;;;;;;;9.64;100.00;101460.25;4916041;29;20399;-90
2023/01/04 05:43:50;;;;;;;3.10;2.40;;;;;;;9.63;100.00;101441.34;4938733;29;20035;-91
2023/01/04 05:46:15;;;;;;;5.55;2.85;;;;;;;9.63;100.00;101427.75;4916394;29;20411;-91
2023/01/04 05:48:40;;;;;;;3.10;2.10;;;;;;;9.64;100.00;101443.94;4916130;29;20046;-90
2023/01/04 05:51:06;;;;;;;4.10;2.60;;;;;;;9.61;100.00;101436.00;4922166;29;20494;-91
2023/01/04 05:53:31;;;;;;;2.92;2.45;;;;;;;9.66;100.00;101441.16;4919150;29;20497;-91
2023/01/04 05:55:56;;;;;;;4.63;2.40;;;;;;;9.66;100.00;101412.16;4952031;29;20456;-89
2023/01/04 05:58:22;;;;;;;3.97;2.40;;;;;;;9.66;100.00;101411.28;4924436;29;20023;-89
2023/01/04 06:00:47;;;;;;;3.35;2.38;;;;;;;9.72;100.00;101424.50;4934772;29;20035;-90
2023/01/04 06:03:12;;;;;;;7.57;2.53;;;;;;;9.69;100.00;101405.66;4918588;29;20077;-91
2023/01/04 06:05:38;;;;;;;2.75;2.47;;;;;;;9.68;100.00;101403.91;4933648;29;20066;-90
2023/01/04 06:08:04;;;;;;;3.42;2.25;;;;;;;9.72;100.00;101421.78;4928747;29;20075;-90
2023/01/04 06:10:29;;;;;;;3.97;2.20;;;;;;;9.73;100.00;101423.53;4931079;29;20035;-90
2023/01/04 06:12:55;;;;;;;3.40;2.00;;;;;;;9.78;100.00;101429.56;4927616;29;20498;-90
2023/01/04 06:15:20;;;;;;;3.85;2.25;;;;;;;9.80;100.00;101424.03;4934704;29;20110;-91
2023/01/04 06:17:46;;;;;;;4.78;2.65;;;;;;;9.81;100.00;101434.81;4934421;29;20034;-91
2023/01/04 06:20:11;;;;;;;3.10;2.08;;;;;;;9.85;100.00;101430.94;4917841;29;20034;-90
2023/01/04 06:22:39;;;;;;;2.72;1.85;;;;;;;9.84;100.00;101429.22;4918052;29;20068;-92
2023/01/04 06:25:05;;;;;;;2.45;1.83;;;;;;;9.85;100.00;101417.34;4934974;29;20027;-89
2023/01/04 06:27:30;;;;;;;2.42;2.10;;;;;;;9.85;100.00;101416.50;4916186;29;20129;-90
2023/01/04 06:29:56;;;;;;;4.47;2.10;;;;;;;9.83;100.00;101399.38;4934243;29;20037;-91
2023/01/04 06:32:21;;;;;;;2.13;1.88;;;;;;;9.87;100.00;101412.69;4929310;29;20479;-91
2023/01/04 06:34:46;;;;;;;3.03;2.00;;;;;;;9.89;100.00;101416.22;4911578;29;20035;-91
2023/01/04 06:37:12;;;;;;;2.67;1.90;;;;;;;9.88;100.00;101405.41;4930529;29;20137;-91
2023/01/04 06:39:38;;;;;;;3.88;1.90;;;;;;;9.86;100.00;101419.09;4914955;29;20495;-90
2023/01/04 06:42:04;;;;;;;3.63;2.00;;;;;;;9.86;100.00;101418.22;4931221;29;20035;-92
2023/01/04 06:44:29;;;;;;;3.35;1.88;;;;;;;9.87;100.00;101414.53;4909040;29;20426;-91
2023/01/04 06:46:55;;;;;;;2.75;1.70;;;;;;;9.93;100.00;101434.09;4934511;29;20039;-90
2023/01/04 06:49:20;;;;;;;1.90;1.80;;;;;;;9.91;100.00;101425.13;4930376;29;20067;-90
2023/01/04 06:51:46;;;;;;;4.30;1.80;;;;;;;9.97;100.00;101421.16;4914796;29;20040;-91
2023/01/04 06:54:11;;;;;;;2.17;1.80;;;;;;;9.96;100.00;101422.13;4927474;29;20034;-89
2023/01/04 06:56:39;;;;;;;3.08;1.88;;;;;;;9.96;100.00;101427.56;4918946;29;20411;-91
2023/01/04 06:59:04;;;;;;;2.20;2.00;;;;;;;9.97;100.00;101427.47;4915885;29;20073;-91
2023/01/04 07:01:30;;;;;;;2.75;1.80;;;;;;;9.97;100.00;101415.72;4933956;29;20448;-91
2023/01/04 07:03:55;;;;;;;2.22;2.05;;;;;;;10.02;100.00;101427.19;4933999;29;20515;-91
2023/01/04 07:06:21;;;;;;;1.85;1.67;;;;;;;10.07;100.00;101413.31;4918497;29;20392;-91
2023/01/04 07:08:46;;;;;;;1.90;1.80;;;;;;;10.07;100.00;101411.50;4933573;29;20043;-91
2023/01/04 07:11:11;;;;;;;1.42;1.33;;;;;;;10.11;100.00;101401.28;4916813;29;20039;-90
2023/01/04 07:13:37;;;;;;;4.65;2.05;;;;;;;10.13;100.00;101399.38;4902543;29;20108;-90
2023/01/04 07:16:02;;;;;;;1.83;1.70;;;;;;;10.18;100.00;101406.28;4918081;29;20031;-90
2023/01/04 07:18:28;;;;;;;3.53;1.38;;;;;;;10.20;100.00;101400.72;4917695;29;20131;-91
2023/01/04 07:20:53;;;;;;;1.83;1.25;;;;;;;10.25;100.00;101382.31;4917326;29;20039;-90
2023/01/04 07:23:19;;;;;;;2.47;1.77;;;;;;;10.27;100.00;101387.66;4933684;29;20035;-90
2023/01/04 07:25:44;;;;;;;2.92;1.42;;;;;;;10.35;100.00;101382.59;4917866;29;20491;-90
2023/01/04 07:28:10;;;;;;;3.22;1.67;;;;;;;10.35;100.00;101382.59;4914928;29;20082;-90
2023/01/04 07:30:35;;;;;;;2.28;1.83;;;;;;;10.39;100.00;101395.03;4899418;29;20074;-91
2023/01/04 07:33:00;;;;;;;7.13;1.73;;;;;;;10.41;100.00;101380.38;4902832;29;20047;-91
2023/01/04 07:35:26;;;;;;;2.38;1.38;;;;;;;10.41;100.00;101371.34;4929404;29;20086;-90
2023/01/04 07:37:51;;;;;;;2.45;1.52;;;;;;;10.39;100.00;101382.31;4942890;29;20358;-90
2023/01/04 07:40:17;;;;;;;5.15;1.77;;;;;;;10.44;100.00;101382.94;4917975;29;20069;-89
2023/01/04 07:42:42;;;;;;;3.22;1.40;;;;;;;10.41;100.00;101365.91;4915826;29;20035;-90
2023/01/04 07:45:08;;;;;;;3.63;1.63;;;;;;;10.42;100.00;101375.81;4917064;29;20089;-90
2023/01/04 07:47:33;;;;;;;2.30;1.42;;;;;;;10.45;100.00;101376.50;4917234;29;20380;-90
2023/01/04 07:49:59;;;;;;;4.35;1.92;;;;;;;10.48;100.00;101369.97;4916460;29;20102;-90
2023/01/04 07:52:24;;;;;;;4.32;1.20;;;;;;;10.52;100.00;101368.81;4930180;29;20493;-90
2023/01/04 07:54:50;;;;;;;4.32;2.30;;;;;;;10.55;100.00;101351.44;4914264;29;20036;-90
2023/01/04 07:57:15;;;;;;;4.32;1.40;;;;;;;10.57;100.00;101357.63;4911114;29;20494;-90
2023/01/04 07:59:40;;;;;;;2.08;1.10;;;;;;;10.57;100.00;101344.03;4906374;29;20028;-90
2023/01/04 08:02:09;;;;;;;2.80;1.45;;;;;;;10.62;100.00;101352.78;4914302;29;20043;-89
2023/01/04 08:04:34;;;;;;;4.43;1.40;;;;;;;10.58;100.00;101335.75;4913760;29;20448;-89
2023/01/04 08:07:00;;;;;;;2.42;1.40;;;;;;;10.60;100.00;101360.19;4913815;29;20040;-90
2023/01/04 08:09:26;;;;;;;3.38;1.40;;;;;;;10.65;100.00;101368.91;4916960;29;20036;-89
2023/01/04 08:11:51;;;;;;;2.20;1.50;;;;;;;10.63;100.00;101351.78;4932691;29;20467;-90
2023/01/04 08:14:16;;;;;;;2.20;1.52;;;;;;;10.65;100.00;101348.00;4930078;29;20035;-90
2023/01/04 08:16:42;;;;;;;1.73;1.40;;;;;;;10.62;100.00;101360.94;4932707;29;20063;-91
2023/01/04 08:19:13;;;;;;;3.53;1.50;;;;;;;10.67;100.00;101367.81;4908554;29;20548;-89
2023/01/04 08:21:39;;;;;;;3.60;1.92;;;;;;;10.69;100.00;101381.34;4913461;29;20082;-90
2023/01/04 08:24:05;;;;;;;3.42;1.80;;;;;;;10.69;100.00;101379.50;4913917;29;20466;-90
2023/01/04 08:26:31;;;;;;;2.85;1.30;;;;;;;10.71;100.00;101382.13;4914967;29;20042;-89
2023/01/04 08:28:56;;;;;;;2.13;1.30;;;;;;;10.70;100.00;101370.34;4922487;29;20051;-90
2023/01/04 08:31:28;;;;;;;4.47;1.50;;;;;;;10.77;100.00;101387.19;4929781;29;20376;-90
2023/01/04 08:33:54;;;;;;;2.60;1.67;;;;;;;10.78;100.00;101380.75;4929044;29;20043;-89
2023/01/04 08:36:22;;;;;;;2.50;1.75;;;;;;;10.79;100.00;101385.22;4930963;29;20515;-90
2023/01/04 08:38:49;;;;;;;4.45;1.58;;;;;;;10.80;100.00;101380.66;4899184;29;20091;-90
2023/01/04 08:41:15;;;;;;;3.47;1.20;;;;;;;10.76;100.00;101381.81;4897878;29;20404;-91
2023/01/04 08:43:41;;;;;;;2.58;1.63;;;;;;;10.82;100.00;101382.31;4917466;29;20032;-90
2023/01/04 08:46:07;;;;;;;4.53;1.35;;;;;;;10.87;100.00;101403.78;4916994;29;20046;-89
2023/01/04 08:48:33;;;;;;;6.55;2.00;;;;;;;10.88;100.00;101395.50;4932861;29;20155;-89
2023/01/04 08:51:03;;;;;;;3.95;1.65;;;;;;;10.90;100.00;101390.81;4931953;29;20039;-89
2023/01/04 08:53:29;;;;;;;5.43;1.70;;;;;;;10.86;100.00;101388.41;4931942;29;20122;-89
2023/01/04 08:55:55;;;;;;;6.00;2.00;;;;;;;10.90;100.00;101387.25;4932758;29;20066;-89
2023/01/04 08:58:22;;;;;;;3.45;1.50;;;;;;;10.94;100.00;101384.22;4925396;29;20488;-88
2023/01/04 09:00:47;;;;;;;2.72;1.65;;;;;;;10.92;100.00;101377.13;4898037;29;20114;-88
2023/01/04 09:03:13;;;;;;;6.93;1.58;;;;;;;10.96;100.00;101386.84;4897607;29;20040;-87
2023/01/04 09:05:39;;;;;;;5.70;1.55;;;;;;;10.96;100.00;101375.97;4917345;29;20472;-88
2023/01/04 09:08:04;;;;;;;4.78;1.88;;;;;;;11.01;100.00;101379.25;4932152;29;20066;-89
2023/01/04 09:10:30;;;;;;;2.28;1.50;;;;;;;11.07;100.00;101386.16;4911786;29;20476;-89
2023/01/04 09:12:55;;;;;;;2.17;1.60;;;;;;;11.04;100.00;101383.63;4914057;29;20096;-89
2023/01/04 09:15:21;;;;;;;5.97;1.70;;;;;;;11.06;100.00;101385.28;4915785;29;20050;-89
2023/01/04 09:17:48;;;;;;;2.58;1.33;;;;;;;11.07;100.00;101383.41;4928379;29;20467;-89
2023/01/04 09:20:14;;;;;;;4.82;1.40;;;;;;;11.07;100.00;101376.13;4912324;29;20032;-89
2023/01/04 09:22:39;;;;;;;4.00;1.52;;;;;;;11.03;100.00;101377.28;4912021;29;20036;-90
2023/01/04 09:25:05;;;;;;;4.95;1.75;;;;;;;11.10;100.00;101375.06;4896667;29;20445;-88
2023/01/04 09:27:31;;;;;;;8.63;1.63;;;;;;;11.05;100.00;101375.38;4921354;29;20174;-89
2023/01/04 09:29:57;;;;;;;4.85;1.40;;;;;;;11.10;100.00;101386.81;4921155;29;20056;-89
2023/01/04 09:32:22;;;;;;;1.92;1.48;;;;;;;11.03;100.00;101374.56;4919361;29;20116;-89
2023/01/04 09:34:48;;;;;;;2.88;1.20;;;;;;;11.01;100.00;101379.25;4946623;29;20039;-90
2023/01/04 09:37:13;;;;;;;3.88;1.33;;;;;;;11.03;100.00;101381.88;4915743;29;20042;-89
2023/01/04 09:39:39;;;;;;;4.07;1.20;;;;;;;10.99;100.00;101392.94;4916090;29;20043;-90
2023/01/04 09:42:12;;;;;;;5.00;1.50;;;;;;;10.93;100.00;101374.31;4943275;29;20423;-90
2023/01/04 09:44:44;;;;;;;4.55;1.48;;;;;;;11.02;100.00;101388.31;4918392;29;20031;-89
2023/01/04 09:47:23;;;;;;;4.47;1.95;;;;;;;10.94;100.00;101380.63;4917622;29;20106;-89
2023/01/04 09:49:55;;;;;;;5.50;1.55;;;;;;;10.96;100.00;101387.72;4933865;29;20568;-90
2023/01/04 09:52:39;;;;;;;6.10;1.25;;;;;;;10.95;100.00;101390.53;4934199;29;20039;-90
2023/01/04 09:55:26;;;;;;;3.55;1.52;;;;;;;10.96;100.00;101378.69;4913345;29;20031;-89
2023/01/04 09:57:59;;;;;;;3.30;1.80;;;;;;;10.95;100.00;101380.50;4932225;29;20098;-90
2023/01/04 10:00:36;;;;;;;4.30;2.22;;;;;;;11.03;100.00;101382.75;4929079;29;20496;-91
2023/01/04 10:03:22;;;;;;;3.25;1.60;;;;;;;11.03;100.00;101388.19;4920253;29;20436;-90
2023/01/04 10:05:49;;;;;;;2.95;1.80;;;;;;;11.01;100.00;101376.53;4914704;29;20039;-90
2023/01/04 10:08:18;;;;;;;3.47;2.10;;;;;;;11.04;100.00;101375.44;4915667;29;20592;-90
2023/01/04 10:11:15;;;;;;;2.85;1.77;;;;;;;11.02;100.00;101377.41;4900361;29;20066;-89
2023/01/04 10:14:31;;;;;;;7.32;1.77;;;;;;;11.01;100.00;101365.66;4932187;29;20447;-91
2023/01/04 10:17:14;;;;;;;2.78;1.67;;;;;;;10.98;100.00;101374.88;4903416;29;20059;-90
2023/01/04 10:20:00;;;;;;;6.65;2.00;;;;;;;10.95;100.00;101372.34;4919128;29;20129;-90
2023/01/04 10:22:47;;;;;;;4.10;1.80;;;;;;;10.96;100.00;101374.13;4933715;29;20106;-91
2023/01/04 10:25:37;;;;;;;4.78;2.22;;;;;;;10.97;100.00;101375.00;4934408;29;20542;-91
2023/01/04 10:28:15;;;;;;;2.80;1.80;;;;;;;10.96;100.00;101382.28;4933074;29;20494;-91
2023/01/04 10:31:04;;;;;;;4.57;2.13;;;;;;;10.97;100.00;101366.81;4919109;29;20043;-91
2023/01/04 10:33:36;;;;;;;4.63;2.33;;;;;;;10.97;100.00;101378.59;4934813;29;20486;-92
2023/01/04 10:36:01;;;;;;;7.80;2.13;;;;;;;10.91;100.00;101364.47;4946970;29;20087;-90
2023/01/04 10:38:35;;;;;;;6.00;2.38;;;;;;;10.88;100.00;101361.97;4915711;29;20068;-92
2023/01/04 10:41:09;;;;;;;1.98;1.77;;;;;;;10.93;100.00;101360.69;4900017;29;20138;-92
2023/01/04 10:44:09;;;;;;;3.70;2.08;;;;;;;10.96;100.00;101362.34;4900259;29;20039;-91
2023/01/04 10:46:43;;;;;;;3.95;2.17;;;;;;;10.91;100.00;101354.50;4916271;29;20103;-91
2023/01/04 10:49:18;;;;;;;5.97;2.17;;;;;;;10.97;100.00;101364.97;4915562;29;20044;-91
2023/01/04 10:52:00;;;;;;;4.47;1.80;;;;;;;10.99;100.00;101363.00;4922924;29;20058;-91
2023/01/04 10:54:30;;;;;;;6.72;2.20;;;;;;;10.98;100.00;101363.13;4919152;29;20553;-90
2023/01/04 10:57:03;;;;;;;4.20;2.30;;;;;;;10.94;100.00;101354.28;4933886;29;20039;-90
2023/01/04 10:59:42;;;;;;;2.28;2.00;;;;;;;10.92;100.00;101345.34;4933242;29;20039;-91
2023/01/04 11:02:38;;;;;;;5.20;2.42;;;;;;;10.99;100.00;101353.97;4934394;29;20043;-91
2023/01/04 11:05:23;;;;;;;2.40;1.63;;;;;;;10.98;100.00;101364.00;4917896;29;20476;-91
2023/01/04 11:08:10;;;;;;;3.17;2.00;;;;;;;10.94;100.00;101358.84;4899958;29;20099;-90
2023/01/04 11:10:43;;;;;;;4.57;1.75;;;;;;;10.93;100.00;101355.25;4899439;29;20042;-92
2023/01/04 11:13:10;;;;;;;3.92;1.77;;;;;;;10.90;100.00;101352.72;4906039;29;20671;-92
2023/01/04 11:15:36;;;;;;;2.33;1.40;;;;;;;10.94;100.00;101347.94;4949342;29;20031;-90
2023/01/04 11:18:05;;;;;;;3.58;1.65;;;;;;;11.00;100.00;101361.16;4918579;29;20486;-91
2023/01/04 11:20:32;;;;;;;2.75;1.48;;;;;;;11.01;100.00;101348.44;4931670;29;20398;-90
2023/01/04 11:23:04;;;;;;;2.92;1.67;;;;;;;10.97;100.00;101353.22;4951280;29;20043;-91
2023/01/04 11:25:34;;;;;;;1.35;1.25;;;;;;;11.01;100.00;101359.34;4934262;29;20046;-90
2023/01/04 11:28:07;;;;;;;1.90;1.35;;;;;;;11.03;100.00;101366.41;4932179;29;20043;-92
2023/01/04 11:31:03;;;;;;;3.13;1.00;;;;;;;11.00;100.00;101352.97;4916880;29;20484;-90
2023/01/04 11:33:29;;;;;;;1.25;1.00;;;;;;;11.01;100.00;101345.72;4899342;29;20043;-91
2023/01/04 11:35:57;;;;;;;1.40;1.30;;;;;;;11.02;100.00;101355.63;4912749;29;20162;-91
2023/01/04 11:38:28;;;;;;;2.90;1.02;;;;;;;10.99;100.00;101357.56;4933075;29;20035;-90
2023/01/04 11:41:04;;;;;;;1.40;0.88;;;;;;;11.02;100.00;101367.38;4918338;29;20458;-92
2023/01/04 11:43:32;;;;;;;1.25;1.00;;;;;;;11.02;100.00;101361.06;4916433;29;20135;-91
2023/01/04 11:46:03;;;;;;;1.70;1.00;;;;;;;10.99;100.00;101359.41;4914692;29;20046;-91
2023/01/04 11:48:43;;;;;;;1.67;1.27;;;;;;;10.97;100.00;101361.38;4899275;29;20052;-92
2023/01/04 11:51:24;;;;;;;2.00;1.50;;;;;;;10.98;100.00;101361.25;4899671;29;20491;-92
2023/01/04 11:53:59;;;;;;;2.35;1.25;;;;;;;10.97;100.00;101355.94;4930160;29;20035;-92
2023/01/04 11:56:28;;;;;;;1.40;0.90;;;;;;;10.99;100.00;101357.56;4915189;29;20036;-90
2023/01/04 11:59:05;;;;;;;0.90;0.90;;;;;;;11.02;100.00;101370.13;4899568;29;20062;-91
2023/01/04 12:01:33;;;;;;;1.15;0.95;;;;;;;10.98;100.00;101357.66;4898923;29;20047;-90
2023/01/04 12:03:59;;;;;;;1.13;0.77;;;;;;;10.99;100.00;101357.56;4913744;29;20040;-91
2023/01/04 12:06:39;;;;;;;1.20;1.10;;;;;;;11.00;100.00;101366.59;4914848;29;20391;-92
2023/01/04 12:09:12;;;;;;;1.98;0.95;;;;;;;11.02;100.00;101363.78;4917052;29;20125;-92
2023/01/04 12:11:54;;;;;;;1.48;1.13;;;;;;;10.98;100.00;101365.84;4949177;28;20222;-92
2023/01/04 12:14:24;;;;;;;1.75;0.93;;;;;;;11.05;100.00;101367.19;4933476;29;20116;-92
2023/01/04 12:17:04;;;;;;;2.05;1.00;;;;;;;11.06;100.00;101366.22;4937428;29;20149;-91